Time;durP1;ratioP1;P1;durP2;ratioP2;P2;SDS_P1;SDS_P2;PMS_P1;PMS_P2;Temp;Humidity;BMP_temperature;BMP_pressure;BME280_temperature;BME280_humidity;BME280_pressure;Samples;Min_cycle;Max_cycle;Signal;HPM_P1;HPM_P2
2023/03/07 00:01:25;;;;;;;19.67;10.20;;;3.80;99.90;;;;;;4989039;28;20050;-87
2023/03/07 00:03:54;;;;;;;20.73;9.98;;;3.80;99.90;;;;;;5006422;28;20065;-87
2023/03/07 00:06:23;;;;;;;23.25;9.93;;;4.30;99.90;;;;;;5005571;28;20481;-87
2023/03/07 00:08:51;;;;;;;19.80;9.48;;;3.80;99.90;;;;;;4974038;28;20038;-87
2023/03/07 00:11:17;;;;;;;18.35;9.10;;;3.80;99.90;;;;;;4988323;28;20048;-87
2023/03/07 00:13:42;;;;;;;19.38;9.05;;;3.80;99.90;;;;;;4997388;28;20060;-88
2023/03/07 00:16:14;;;;;;;16.17;8.18;;;3.80;99.90;;;;;;4981664;28;20060;-87
2023/03/07 00:18:42;;;;;;;18.85;8.95;;;3.80;99.90;;;;;;4993850;28;20054;-88
2023/03/07 00:21:14;;;;;;;15.15;7.18;;;3.90;99.90;;;;;;4975993;28;20045;-88
2023/03/07 00:23:42;;;;;;;13.88;6.97;;;3.90;99.90;;;;;;5007374;28;20492;-88
2023/03/07 00:26:14;;;;;;;11.88;6.30;;;3.90;99.90;;;;;;5001155;28;20054;-87
2023/03/07 00:28:40;;;;;;;14.18;6.15;;;3.90;99.90;;;;;;5010434;28;20064;-88
2023/03/07 00:31:08;;;;;;;12.90;5.88;;;4.00;99.90;;;;;;5010708;28;20065;-87
2023/03/07 00:33:34;;;;;;;9.20;3.78;;;4.00;99.90;;;;;;5015775;28;20084;-87
2023/03/07 00:36:13;;;;;;;10.52;5.35;;;4.00;99.90;;;;;;5011099;28;20409;-87
2023/03/07 00:38:40;;;;;;;10.63;4.00;;;4.00;99.90;;;;;;5014409;28;20037;-87
2023/03/07 00:41:15;;;;;;;8.90;2.92;;;4.00;99.90;;;;;;5010666;28;20033;-87
2023/03/07 00:43:41;;;;;;;10.27;2.55;;;4.00;99.90;;;;;;5012344;28;20085;-87
2023/03/07 00:46:08;;;;;;;7.13;2.70;;;3.90;99.90;;;;;;4993295;28;20069;-87
2023/03/07 00:48:37;;;;;;;11.65;4.22;;;3.90;99.90;;;;;;4997067;28;20041;-87
2023/03/07 00:51:08;;;;;;;7.90;3.70;;;3.90;99.90;;;;;;4997402;28;20052;-87
2023/03/07 00:53:34;;;;;;;4.43;1.67;;;3.90;99.90;;;;;;4992655;28;20058;-87
2023/03/07 00:56:01;;;;;;;4.95;1.98;;;4.10;99.90;;;;;;5010702;28;20125;-87
2023/03/07 00:58:29;;;;;;;11.18;2.80;;;3.80;99.90;;;;;;4999582;28;20403;-87
2023/03/07 01:00:55;;;;;;;6.57;1.70;;;3.80;99.90;;;;;;4998261;28;20041;-87
2023/03/07 01:03:22;;;;;;;6.55;2.05;;;3.80;99.90;;;;;;5014267;28;20041;-87
2023/03/07 01:05:48;;;;;;;6.85;2.40;;;4.60;99.90;;;;;;5014702;28;20120;-87
2023/03/07 01:08:14;;;;;;;7.38;1.90;;;3.80;99.90;;;;;;5009686;28;20053;-87
2023/03/07 01:10:40;;;;;;;6.63;1.10;;;3.70;99.90;;;;;;4998023;28;20054;-87
2023/03/07 01:13:06;;;;;;;7.45;0.98;;;3.80;99.90;;;;;;5017247;28;20037;-87
2023/03/07 01:15:32;;;;;;;9.80;2.25;;;3.80;99.90;;;;;;5016622;28;20087;-87
2023/03/07 01:17:58;;;;;;;6.50;1.88;;;3.80;99.90;;;;;;5011771;28;20120;-87
2023/03/07 01:20:24;;;;;;;4.40;1.33;;;3.80;99.90;;;;;;5010156;28;20053;-86
2023/03/07 01:22:53;;;;;;;4.90;1.35;;;3.80;99.90;;;;;;4999098;28;20053;-87
2023/03/07 01:25:18;;;;;;;6.40;1.27;;;3.60;99.90;;;;;;4994311;28;20042;-87
2023/03/07 01:27:44;;;;;;;5.78;1.00;;;3.80;99.90;;;;;;5009060;28;20052;-87
2023/03/07 01:30:13;;;;;;;9.98;1.73;;;3.70;99.90;;;;;;5009443;28;20053;-87
2023/03/07 01:32:39;;;;;;;8.70;2.10;;;3.70;99.90;;;;;;5012356;28;20029;-87
2023/03/07 01:35:08;;;;;;;9.32;1.17;;;3.70;99.90;;;;;;4999889;28;20182;-87
2023/03/07 01:37:33;;;;;;;6.28;1.58;;;3.70;99.90;;;;;;4999125;28;20045;-86
2023/03/07 01:40:01;;;;;;;6.20;1.55;;;3.70;99.90;;;;;;4998544;28;20076;-87
2023/03/07 01:42:32;;;;;;;6.88;1.30;;;3.60;99.90;;;;;;5009609;28;20485;-87
2023/03/07 01:45:33;;;;;;;10.98;1.40;;;3.70;99.90;;;;;;5007956;28;20473;-87
2023/03/07 01:48:01;;;;;;;5.43;1.80;;;3.80;99.90;;;;;;4987414;28;20053;-87
2023/03/07 01:50:29;;;;;;;8.45;1.48;;;3.80;99.90;;;;;;5012552;28;20065;-87
2023/03/07 01:52:59;;;;;;;11.05;1.67;;;3.70;99.90;;;;;;4993103;28;20558;-87
2023/03/07 01:55:35;;;;;;;8.85;1.20;;;3.90;99.90;;;;;;5013367;28;20418;-87
2023/03/07 01:58:15;;;;;;;10.40;1.75;;;3.80;99.90;;;;;;5012902;28;20056;-87
2023/03/07 02:00:54;;;;;;;13.52;1.10;;;3.80;99.90;;;;;;5013634;28;20049;-86
2023/03/07 02:03:34;;;;;;;5.85;1.02;;;5.10;99.90;;;;;;4979496;28;20052;-87
2023/03/07 02:06:04;;;;;;;6.72;1.08;;;3.80;99.90;;;;;;5009859;28;20080;-87
2023/03/07 02:08:32;;;;;;;6.40;1.25;;;3.70;99.90;;;;;;5001755;28;20050;-87
2023/03/07 02:10:57;;;;;;;4.68;1.40;;;3.70;99.90;;;;;;5008594;28;20088;-87
2023/03/07 02:13:26;;;;;;;9.13;1.55;;;3.70;99.90;;;;;;5009483;28;20069;-86
2023/03/07 02:15:58;;;;;;;6.60;1.50;;;3.70;99.90;;;;;;4990557;28;20084;-86
2023/03/07 02:18:31;;;;;;;6.82;1.13;;;3.70;99.90;;;;;;5000613;28;20053;-86
2023/03/07 02:21:42;;;;;;;7.72;1.00;;;3.60;99.90;;;;;;4996108;28;20045;-87
2023/03/07 02:24:21;;;;;;;7.72;1.20;;;3.60;99.90;;;;;;5018220;28;20068;-86
2023/03/07 02:26:49;;;;;;;10.50;1.50;;;4.30;99.90;;;;;;5010417;28;20493;-87
2023/03/07 02:29:16;;;;;;;8.00;1.45;;;3.60;99.90;;;;;;4978951;28;20496;-86
2023/03/07 02:31:42;;;;;;;10.50;1.65;;;3.60;99.90;;;;;;4993958;28;20038;-86
2023/03/07 02:34:21;;;;;;;10.35;1.50;;;3.50;99.90;;;;;;4982948;28;20455;-87
2023/03/07 02:36:51;;;;;;;9.68;1.20;;;3.50;99.90;;;;;;5008205;28;20038;-86
2023/03/07 02:39:22;;;;;;;6.65;1.48;;;3.40;99.90;;;;;;4993952;28;20041;-86
2023/03/07 02:41:52;;;;;;;9.43;1.80;;;3.50;99.90;;;;;;5013585;28;20045;-87
2023/03/07 02:44:17;;;;;;;6.95;1.30;;;3.50;99.90;;;;;;4989304;28;20042;-86
2023/03/07 02:46:43;;;;;;;9.25;1.38;;;3.50;99.90;;;;;;4990159;28;20061;-86
2023/03/07 02:49:09;;;;;;;7.10;1.65;;;3.50;99.90;;;;;;5007452;28;20155;-86
2023/03/07 02:51:40;;;;;;;10.35;1.45;;;3.50;99.90;;;;;;4983815;28;20077;-86
2023/03/07 02:54:07;;;;;;;6.43;1.05;;;3.40;99.90;;;;;;4989733;28;20493;-86
2023/03/07 02:56:33;;;;;;;7.68;1.10;;;3.40;99.90;;;;;;4973999;28;20049;-87
2023/03/07 02:59:04;;;;;;;10.82;1.23;;;3.40;99.90;;;;;;4994124;28;20650;-87
2023/03/07 03:01:30;;;;;;;4.90;1.02;;;3.60;99.90;;;;;;5012557;28;20049;-86
2023/03/07 03:03:56;;;;;;;8.35;1.27;;;3.80;99.90;;;;;;4997414;28;20054;-87
2023/03/07 03:06:22;;;;;;;13.43;1.52;;;3.40;99.90;;;;;;4992302;28;20057;-86
2023/03/07 03:08:47;;;;;;;12.20;1.48;;;3.40;99.90;;;;;;5006475;28;20396;-85
2023/03/07 03:11:13;;;;;;;9.45;1.10;;;3.40;99.90;;;;;;5007063;28;20046;-86
2023/03/07 03:13:39;;;;;;;10.63;1.30;;;3.40;99.90;;;;;;4990338;28;20515;-86
2023/03/07 03:16:07;;;;;;;10.70;1.50;;;3.40;99.90;;;;;;4993914;28;20037;-86
2023/03/07 03:18:38;;;;;;;11.75;1.35;;;4.00;99.90;;;;;;5008263;28;20045;-86
2023/03/07 03:21:10;;;;;;;10.88;1.10;;;3.30;99.90;;;;;;4999291;28;20033;-86
2023/03/07 03:23:36;;;;;;;11.43;1.10;;;4.20;99.90;;;;;;4989999;28;20125;-86
2023/03/07 03:26:06;;;;;;;10.63;1.42;;;3.30;99.90;;;;;;5000738;28;20494;-86
2023/03/07 03:28:35;;;;;;;5.70;1.10;;;3.20;99.90;;;;;;4992689;28;20037;-86
2023/03/07 03:31:07;;;;;;;14.38;1.30;;;3.30;99.90;;;;;;5018742;28;20097;-86
2023/03/07 03:33:33;;;;;;;10.63;1.42;;;3.30;99.90;;;;;;4995671;28;20103;-85
2023/03/07 03:36:03;;;;;;;7.43;1.25;;;3.30;99.90;;;;;;4993661;28;20050;-85
2023/03/07 03:38:32;;;;;;;11.23;1.10;;;3.30;99.90;;;;;;5008067;28;20038;-86
2023/03/07 03:41:01;;;;;;;8.57;1.17;;;3.30;99.90;;;;;;4997589;28;20045;-86
2023/03/07 03:43:27;;;;;;;11.25;1.13;;;3.30;99.90;;;;;;5007416;28;20045;-86
2023/03/07 03:45:56;;;;;;;6.10;1.25;;;3.40;99.90;;;;;;5007863;28;20062;-85
2023/03/07 03:48:23;;;;;;;7.93;0.90;;;3.30;99.90;;;;;;4979282;28;20076;-85
2023/03/07 03:50:48;;;;;;;5.10;1.00;;;3.30;99.90;;;;;;4995267;28;20112;-85
2023/03/07 03:53:14;;;;;;;6.38;1.10;;;3.30;99.90;;;;;;5004430;28;20073;-85
2023/03/07 03:55:40;;;;;;;12.93;1.55;;;3.30;99.90;;;;;;4998169;28;20461;-86
2023/03/07 03:58:06;;;;;;;8.98;0.95;;;3.30;99.90;;;;;;4993838;28;20029;-86
2023/03/07 04:00:31;;;;;;;9.48;1.00;;;3.30;99.90;;;;;;4980592;28;20053;-86
2023/03/07 04:02:57;;;;;;;8.70;0.93;;;3.30;99.90;;;;;;5014989;28;20124;-85
2023/03/07 04:05:23;;;;;;;5.85;0.80;;;3.30;99.90;;;;;;4994127;28;20034;-86
2023/03/07 04:07:49;;;;;;;9.35;0.68;;;3.30;99.90;;;;;;5015372;28;20496;-85
2023/03/07 04:10:15;;;;;;;6.18;0.80;;;3.30;99.90;;;;;;4995363;28;20045;-85
2023/03/07 04:12:42;;;;;;;7.18;0.82;;;3.30;99.90;;;;;;4994764;28;20404;-85
2023/03/07 04:15:08;;;;;;;9.95;1.60;;;3.30;99.90;;;;;;5014901;28;20041;-85
2023/03/07 04:17:40;;;;;;;7.57;0.82;;;3.30;99.90;;;;;;5022656;28;20503;-86
2023/03/07 04:20:12;;;;;;;6.32;0.75;;;3.30;99.90;;;;;;5011134;28;20080;-85
2023/03/07 04:22:38;;;;;;;10.23;1.23;;;3.30;99.90;;;;;;4999693;28;20038;-86
2023/03/07 04:25:04;;;;;;;6.93;1.15;;;3.10;99.90;;;;;;5011258;28;20053;-85
2023/03/07 04:27:32;;;;;;;7.55;0.80;;;3.20;99.90;;;;;;5000752;28;20037;-85
2023/03/07 04:30:01;;;;;;;7.10;0.70;;;3.20;99.90;;;;;;4977681;28;20041;-85
2023/03/07 04:32:26;;;;;;;6.40;1.00;;;3.20;99.90;;;;;;4993812;28;20052;-85
2023/03/07 04:34:52;;;;;;;6.18;0.63;;;3.20;99.90;;;;;;4993295;28;20041;-85
2023/03/07 04:37:20;;;;;;;11.80;1.20;;;3.20;99.90;;;;;;5001068;28;20038;-85
2023/03/07 04:39:45;;;;;;;7.97;0.80;;;3.10;99.90;;;;;;4988360;28;20042;-85
2023/03/07 04:42:11;;;;;;;7.72;0.73;;;3.10;99.90;;;;;;4986949;28;20480;-85
2023/03/07 04:44:39;;;;;;;6.68;1.02;;;3.10;99.90;;;;;;4997237;28;20045;-85
2023/03/07 04:47:05;;;;;;;6.40;0.90;;;3.10;99.90;;;;;;4997546;28;20046;-85
2023/03/07 04:49:30;;;;;;;8.23;1.10;;;3.10;99.90;;;;;;5014258;28;20393;-85
2023/03/07 04:51:56;;;;;;;11.73;1.30;;;3.10;99.90;;;;;;5010575;28;20440;-85
2023/03/07 04:54:25;;;;;;;7.40;0.70;;;3.10;99.90;;;;;;5010657;28;20049;-85
2023/03/07 04:56:50;;;;;;;6.68;1.00;;;3.10;99.90;;;;;;5001245;28;20050;-85
2023/03/07 04:59:16;;;;;;;9.32;1.30;;;3.10;99.90;;;;;;5002892;28;20037;-85
2023/03/07 05:01:45;;;;;;;8.20;1.00;;;3.10;99.90;;;;;;5003839;28;20128;-85
2023/03/07 05:04:14;;;;;;;6.25;0.70;;;3.10;99.90;;;;;;4993135;28;20030;-86
2023/03/07 05:06:40;;;;;;;8.45;1.33;;;3.10;99.90;;;;;;5020139;28;20563;-85
2023/03/07 05:09:05;;;;;;;10.00;1.23;;;3.10;99.90;;;;;;5016129;28;20033;-85
2023/03/07 05:11:31;;;;;;;10.23;1.77;;;3.00;99.90;;;;;;5014123;28;20045;-85
2023/03/07 05:13:57;;;;;;;7.45;1.25;;;3.10;99.90;;;;;;4998586;28;20077;-85
2023/03/07 05:16:25;;;;;;;11.32;0.90;;;3.00;99.90;;;;;;4999315;28;20046;-85
2023/03/07 05:18:56;;;;;;;6.25;0.65;;;3.00;99.90;;;;;;4992199;28;20076;-85
2023/03/07 05:21:24;;;;;;;8.63;1.00;;;3.10;99.90;;;;;;5000781;28;20084;-85
2023/03/07 05:23:50;;;;;;;4.82;1.27;;;3.00;99.90;;;;;;5002361;28;20076;-85
2023/03/07 05:26:16;;;;;;;6.57;1.15;;;3.10;99.90;;;;;;5002903;28;20033;-85
2023/03/07 05:28:42;;;;;;;7.70;1.23;;;3.10;99.90;;;;;;5010332;28;20571;-85
2023/03/07 05:31:07;;;;;;;8.18;1.00;;;3.10;99.90;;;;;;5010296;28;20038;-85
2023/03/07 05:33:33;;;;;;;10.10;1.30;;;3.10;99.90;;;;;;4992180;28;20045;-85
2023/03/07 05:36:00;;;;;;;9.20;1.10;;;3.20;99.90;;;;;;4992004;28;20042;-85
2023/03/07 05:38:29;;;;;;;11.23;1.60;;;3.20;99.90;;;;;;4991792;28;20038;-85
2023/03/07 05:40:55;;;;;;;10.02;1.35;;;4.10;99.90;;;;;;5006500;28;20134;-85
2023/03/07 05:43:23;;;;;;;9.10;1.02;;;4.00;99.90;;;;;;4991914;28;20116;-85
2023/03/07 05:45:49;;;;;;;6.47;1.25;;;3.20;99.90;;;;;;5009195;28;20049;-87
2023/03/07 05:48:14;;;;;;;8.52;1.05;;;3.20;99.90;;;;;;4998586;28;20052;-88
2023/03/07 05:50:41;;;;;;;8.35;0.90;;;3.20;99.90;;;;;;5015126;28;20489;-87
2023/03/07 05:53:07;;;;;;;8.27;0.90;;;3.20;99.90;;;;;;4997074;28;20049;-87
2023/03/07 05:55:33;;;;;;;7.60;0.80;;;3.20;99.90;;;;;;5018967;28;20456;-88
2023/03/07 05:57:59;;;;;;;12.70;1.33;;;3.20;99.90;;;;;;4999264;28;20095;-87
2023/03/07 06:00:25;;;;;;;7.72;1.23;;;3.20;99.90;;;;;;5001152;28;20121;-88
2023/03/07 06:02:51;;;;;;;7.47;0.70;;;3.30;99.90;;;;;;5021723;28;20046;-87
2023/03/07 06:05:16;;;;;;;10.05;1.35;;;3.20;99.90;;;;;;5018194;28;20059;-87
2023/03/07 06:07:42;;;;;;;8.65;1.60;;;3.20;99.90;;;;;;5010262;28;20436;-87
2023/03/07 06:10:10;;;;;;;11.52;1.00;;;3.20;99.90;;;;;;4999167;28;20529;-87
2023/03/07 06:12:37;;;;;;;13.05;1.05;;;3.10;99.90;;;;;;5015508;28;20034;-86
2023/03/07 06:15:04;;;;;;;5.38;0.95;;;3.10;99.90;;;;;;5004122;28;20343;-87
2023/03/07 06:17:30;;;;;;;5.53;0.95;;;3.10;99.90;;;;;;5014704;28;20088;-87
2023/03/07 06:19:57;;;;;;;9.95;1.00;;;3.10;99.90;;;;;;5013688;28;20061;-86
2023/03/07 06:22:23;;;;;;;6.97;1.20;;;3.10;99.90;;;;;;5024666;28;20096;-87
2023/03/07 06:24:49;;;;;;;4.90;0.90;;;3.10;99.90;;;;;;5004622;28;20041;-93
2023/03/07 06:27:14;;;;;;;6.50;0.80;;;3.10;99.90;;;;;;5019839;28;20037;-92
2023/03/07 06:29:40;;;;;;;7.30;1.10;;;3.10;99.90;;;;;;4987621;28;20042;-91
2023/03/07 06:32:06;;;;;;;12.90;1.60;;;3.10;99.90;;;;;;5014397;28;20090;-90
2023/03/07 06:34:31;;;;;;;5.95;0.80;;;3.10;99.90;;;;;;4999588;28;20157;-86
2023/03/07 06:37:02;;;;;;;10.82;0.90;;;3.10;99.90;;;;;;5023223;28;20064;-88
2023/03/07 06:39:28;;;;;;;9.88;1.30;;;3.10;99.90;;;;;;5018250;28;20053;-88
2023/03/07 06:41:54;;;;;;;6.07;0.70;;;3.30;99.90;;;;;;4981139;28;20049;-88
2023/03/07 06:44:19;;;;;;;8.02;0.98;;;3.20;99.90;;;;;;5005966;28;20046;-88
2023/03/07 06:46:54;;;;;;;15.00;1.38;;;3.20;99.90;;;;;;5005699;28;20054;-87
2023/03/07 06:49:20;;;;;;;8.70;1.98;;;3.20;99.90;;;;;;4996122;28;20720;-86
2023/03/07 06:51:45;;;;;;;7.78;0.93;;;3.20;99.90;;;;;;5013903;28;20034;-87
2023/03/07 06:54:13;;;;;;;7.50;1.02;;;4.00;99.90;;;;;;5013349;28;20046;-87
2023/03/07 06:56:45;;;;;;;7.40;1.70;;;3.20;99.90;;;;;;4979539;28;20037;-85
2023/03/07 06:59:10;;;;;;;7.32;0.80;;;3.20;99.90;;;;;;5016298;28;20033;-86
2023/03/07 07:01:36;;;;;;;7.20;0.80;;;3.20;99.90;;;;;;4992713;28;20044;-85
2023/03/07 07:04:03;;;;;;;9.82;1.27;;;3.20;99.90;;;;;;4999565;28;20065;-86
2023/03/07 07:06:28;;;;;;;7.20;1.33;;;3.20;99.90;;;;;;5008907;28;20111;-85
2023/03/07 07:08:58;;;;;;;4.40;0.90;;;3.20;99.90;;;;;;4990957;28;20873;-86
2023/03/07 07:11:24;;;;;;;6.03;0.98;;;3.20;99.90;;;;;;5011435;28;20041;-86
2023/03/07 07:13:50;;;;;;;5.97;0.73;;;3.20;99.90;;;;;;4997464;28;20416;-87
2023/03/07 07:16:17;;;;;;;7.65;0.85;;;3.20;99.90;;;;;;4994199;28;20041;-87
2023/03/07 07:18:52;;;;;;;4.35;0.80;;;3.20;99.90;;;;;;4971645;28;20042;-87
2023/03/07 07:21:20;;;;;;;6.28;0.90;;;3.20;99.90;;;;;;4994190;28;20043;-86
2023/03/07 07:23:48;;;;;;;6.45;0.95;;;3.30;99.90;;;;;;4999394;28;20034;-86
2023/03/07 07:26:14;;;;;;;9.52;0.70;;;3.20;99.90;;;;;;4992197;28;20034;-89
2023/03/07 07:28:39;;;;;;;4.07;0.60;;;3.20;99.90;;;;;;5013130;28;20432;-85
2023/03/07 07:31:05;;;;;;;3.63;0.50;;;3.20;99.90;;;;;;4996048;28;20100;-85
2023/03/07 07:33:31;;;;;;;3.40;0.65;;;3.20;99.90;;;;;;4988037;28;20146;-85
2023/03/07 07:35:56;;;;;;;5.78;0.90;;;3.20;99.90;;;;;;4994150;28;20183;-85
2023/03/07 07:38:22;;;;;;;6.95;0.90;;;3.20;99.90;;;;;;5017713;28;20087;-85
2023/03/07 07:40:48;;;;;;;7.00;0.93;;;3.20;99.90;;;;;;5008098;28;20045;-85
2023/03/07 07:43:16;;;;;;;5.07;0.73;;;3.20;99.90;;;;;;4996359;28;20034;-84
2023/03/07 07:45:41;;;;;;;5.25;1.10;;;3.20;99.90;;;;;;5014805;28;20061;-84
2023/03/07 07:48:07;;;;;;;7.75;0.80;;;3.20;99.90;;;;;;4999981;28;20354;-84
2023/03/07 07:50:33;;;;;;;5.05;0.70;;;3.20;99.90;;;;;;5002272;28;20037;-83
2023/03/07 07:52:59;;;;;;;7.63;0.68;;;3.20;99.90;;;;;;4993590;28;20048;-84
2023/03/07 07:55:25;;;;;;;2.55;0.55;;;3.20;99.90;;;;;;5011309;28;20161;-84
2023/03/07 07:57:51;;;;;;;5.07;0.73;;;3.20;99.90;;;;;;4990831;28;20100;-84
2023/03/07 08:00:20;;;;;;;4.22;0.68;;;3.20;99.90;;;;;;4985134;28;20045;-85
2023/03/07 08:02:50;;;;;;;5.95;0.90;;;3.30;99.90;;;;;;5004425;28;20053;-84
2023/03/07 08:05:17;;;;;;;4.65;0.57;;;3.30;99.90;;;;;;5013249;28;20045;-84
2023/03/07 08:07:44;;;;;;;5.47;0.70;;;3.30;99.90;;;;;;4994548;28;20126;-84
2023/03/07 08:10:14;;;;;;;3.88;0.40;;;3.30;99.90;;;;;;4993466;28;20547;-84
2023/03/07 08:12:42;;;;;;;4.60;0.70;;;3.30;99.90;;;;;;4990040;28;20574;-84
2023/03/07 08:15:08;;;;;;;5.13;0.52;;;3.30;99.90;;;;;;4990544;28;20132;-84
2023/03/07 08:17:34;;;;;;;6.35;0.70;;;3.40;99.90;;;;;;5008875;28;20034;-84
2023/03/07 08:20:03;;;;;;;3.88;0.70;;;3.40;99.90;;;;;;5006668;28;20046;-83
2023/03/07 08:22:29;;;;;;;3.50;0.52;;;3.40;99.90;;;;;;5000280;28;20052;-84
2023/03/07 08:24:54;;;;;;;5.07;0.60;;;3.50;99.90;;;;;;5017687;28;20120;-84
2023/03/07 08:27:20;;;;;;;3.40;0.60;;;3.50;99.90;;;;;;5015311;28;20041;-84
2023/03/07 08:29:49;;;;;;;2.15;0.55;;;3.50;99.90;;;;;;5013867;28;20088;-83
2023/03/07 08:32:15;;;;;;;2.25;0.50;;;3.50;99.90;;;;;;5019682;28;20069;-84
2023/03/07 08:34:40;;;;;;;9.40;0.77;;;3.60;99.90;;;;;;4990147;28;20088;-84
2023/03/07 08:37:06;;;;;;;3.55;0.80;;;3.60;99.90;;;;;;5011457;28;20038;-84
2023/03/07 08:39:32;;;;;;;5.70;0.70;;;3.60;99.90;;;;;;5021655;28;20040;-84
2023/03/07 08:41:58;;;;;;;6.70;0.75;;;3.60;99.90;;;;;;5000004;28;20060;-84
2023/03/07 08:44:24;;;;;;;6.47;0.57;;;3.70;99.90;;;;;;5016653;28;20081;-84
2023/03/07 08:46:49;;;;;;;5.55;0.68;;;3.70;99.90;;;;;;4977015;28;20104;-84
2023/03/07 08:49:15;;;;;;;3.08;0.35;;;3.70;99.90;;;;;;4997291;28;20064;-83
2023/03/07 08:51:41;;;;;;;3.13;0.38;;;3.70;99.90;;;;;;5010922;28;20424;-84
2023/03/07 08:54:06;;;;;;;3.08;0.30;;;3.70;99.90;;;;;;5021709;28;20366;-84
2023/03/07 08:56:32;;;;;;;2.63;0.50;;;3.80;99.90;;;;;;5002949;28;20030;-84
2023/03/07 08:58:58;;;;;;;3.20;0.40;;;3.80;99.90;;;;;;5006083;28;20044;-84
2023/03/07 09:01:23;;;;;;;7.55;0.57;;;3.80;99.90;;;;;;4981905;28;20378;-84
2023/03/07 09:03:49;;;;;;;4.00;0.45;;;3.80;99.90;;;;;;4994463;28;20049;-84
2023/03/07 09:06:17;;;;;;;2.35;0.70;;;3.80;99.90;;;;;;5017328;28;20085;-85
2023/03/07 09:08:43;;;;;;;7.47;0.63;;;3.90;99.90;;;;;;4976381;28;20038;-84
2023/03/07 09:11:09;;;;;;;7.00;0.77;;;3.80;99.90;;;;;;4982188;28;20125;-85
2023/03/07 09:13:35;;;;;;;2.13;0.45;;;3.80;99.90;;;;;;4993847;28;20125;-84
2023/03/07 09:16:06;;;;;;;8.02;0.68;;;3.80;99.90;;;;;;4993662;28;20041;-84
2023/03/07 09:18:33;;;;;;;7.70;0.90;;;3.70;99.90;;;;;;5016602;28;20392;-84
2023/03/07 09:21:00;;;;;;;6.50;1.30;;;3.70;99.90;;;;;;5001534;28;20092;-84
2023/03/07 09:23:26;;;;;;;3.03;0.60;;;3.70;99.90;;;;;;5011283;28;20073;-84
2023/03/07 09:25:52;;;;;;;3.45;0.52;;;3.60;99.90;;;;;;5003685;28;20041;-84
2023/03/07 09:28:18;;;;;;;4.63;1.02;;;3.70;99.90;;;;;;5003676;28;20052;-83
2023/03/07 09:30:43;;;;;;;3.67;0.68;;;3.60;99.90;;;;;;5018881;28;20046;-84
2023/03/07 09:33:09;;;;;;;4.97;0.60;;;3.60;99.90;;;;;;5016080;28;20049;-84
2023/03/07 09:35:37;;;;;;;5.53;0.80;;;3.60;99.90;;;;;;5011131;28;20054;-84
2023/03/07 09:38:03;;;;;;;1.55;0.40;;;3.60;99.90;;;;;;5000539;28;20548;-83
2023/03/07 09:40:29;;;;;;;3.42;0.68;;;3.60;99.90;;;;;;4995268;28;20117;-84
2023/03/07 09:43:19;;;;;;;8.18;0.70;;;3.60;99.90;;;;;;4997328;28;20097;-84
2023/03/07 09:46:19;;;;;;;5.72;0.55;;;3.50;99.90;;;;;;5013523;28;20156;-84
2023/03/07 09:49:08;;;;;;;5.55;0.70;;;3.50;99.90;;;;;;5016406;28;20030;-84
2023/03/07 09:51:42;;;;;;;6.40;0.73;;;3.50;99.90;;;;;;4997266;28;20152;-84
2023/03/07 09:54:18;;;;;;;7.28;1.05;;;3.50;99.90;;;;;;5006231;28;20042;-83
2023/03/07 09:56:58;;;;;;;6.90;0.63;;;3.50;99.90;;;;;;4992948;28;20053;-84
2023/03/07 09:59:46;;;;;;;5.75;0.90;;;3.50;99.90;;;;;;5009951;28;20411;-83
2023/03/07 10:02:31;;;;;;;5.15;0.73;;;3.60;99.90;;;;;;4992219;28;20493;-83
2023/03/07 10:05:12;;;;;;;11.65;0.93;;;3.60;99.90;;;;;;5016651;28;20140;-84
2023/03/07 10:07:38;;;;;;;2.78;0.60;;;3.60;99.90;;;;;;5018575;28;20041;-83
2023/03/07 10:10:11;;;;;;;7.32;0.82;;;3.60;99.90;;;;;;5016644;28;20034;-84
2023/03/07 10:13:16;;;;;;;7.35;1.23;;;3.60;99.90;;;;;;4992540;28;20045;-84
2023/03/07 10:15:46;;;;;;;8.63;0.60;;;3.70;99.90;;;;;;5009682;28;20101;-83
2023/03/07 10:18:37;;;;;;;4.68;0.70;;;3.70;99.90;;;;;;5017392;28;20388;-84
2023/03/07 10:21:08;;;;;;;9.80;1.38;;;3.80;99.90;;;;;;4989429;28;20046;-84
2023/03/07 10:23:37;;;;;;;4.70;0.73;;;3.80;99.90;;;;;;5016827;28;20033;-84
2023/03/07 10:26:08;;;;;;;5.60;0.93;;;3.90;99.90;;;;;;5011723;28;20048;-83
2023/03/07 10:28:38;;;;;;;5.65;0.77;;;4.00;99.90;;;;;;5009538;28;20499;-84
2023/03/07 10:31:26;;;;;;;6.53;0.98;;;4.10;99.90;;;;;;4998572;28;20493;-84
2023/03/07 10:33:53;;;;;;;8.15;1.20;;;4.10;99.90;;;;;;4985724;28;20041;-84
2023/03/07 10:36:43;;;;;;;4.97;0.85;;;4.20;99.90;;;;;;5002342;28;20370;-84
2023/03/07 10:39:32;;;;;;;6.22;0.63;;;4.40;99.90;;;;;;5016549;28;20065;-84
2023/03/07 10:41:58;;;;;;;4.57;1.17;;;4.40;99.90;;;;;;5008386;28;20533;-84
2023/03/07 10:44:32;;;;;;;5.35;0.65;;;4.50;99.90;;;;;;4996852;28;20041;-84
2023/03/07 10:46:59;;;;;;;4.85;0.63;;;4.40;99.90;;;;;;4991894;28;20136;-84
2023/03/07 10:49:42;;;;;;;4.03;0.85;;;4.60;99.90;;;;;;5018938;28;20041;-84
2023/03/07 10:52:28;;;;;;;7.57;1.15;;;4.70;99.90;;;;;;4998815;28;20045;-84
2023/03/07 10:54:54;;;;;;;5.03;0.80;;;4.70;99.90;;;;;;4992196;28;20129;-84
2023/03/07 10:57:26;;;;;;;6.13;0.60;;;4.80;99.90;;;;;;5009454;28;20124;-84
2023/03/07 10:59:52;;;;;;;2.88;0.55;;;4.80;99.90;;;;;;4994551;28;20111;-84
2023/03/07 11:02:36;;;;;;;6.20;0.88;;;4.80;99.90;;;;;;5011631;28;20465;-84
2023/03/07 11:05:16;;;;;;;3.30;0.80;;;4.80;99.90;;;;;;4997205;28;20077;-84
2023/03/07 11:07:42;;;;;;;11.05;1.20;;;4.90;99.90;;;;;;4997758;28;20041;-84
2023/03/07 11:10:38;;;;;;;9.27;0.70;;;5.00;99.90;;;;;;5012993;28;20033;-84
2023/03/07 11:13:14;;;;;;;16.80;1.30;;;5.00;99.90;;;;;;5014592;28;20109;-84
2023/03/07 11:15:39;;;;;;;12.40;2.13;;;5.10;99.90;;;;;;4991527;28;20042;-84
2023/03/07 11:18:29;;;;;;;9.43;1.50;;;5.10;99.90;;;;;;5013708;28;20042;-84
2023/03/07 11:20:55;;;;;;;7.32;0.93;;;5.10;99.90;;;;;;4978468;28;20048;-83
2023/03/07 11:23:24;;;;;;;7.55;1.65;;;5.10;99.90;;;;;;4991489;28;20108;-84
2023/03/07 11:25:53;;;;;;;7.50;1.52;;;5.20;99.90;;;;;;5014713;28;20127;-84
2023/03/07 11:28:28;;;;;;;8.57;1.50;;;5.20;99.90;;;;;;5014473;28;20119;-84
2023/03/07 11:31:39;;;;;;;3.00;0.75;;;5.20;99.90;;;;;;4996332;28;20050;-84
2023/03/07 11:34:21;;;;;;;5.88;0.90;;;5.30;99.90;;;;;;5004289;28;20505;-84
2023/03/07 11:36:56;;;;;;;8.30;1.30;;;5.30;99.90;;;;;;5009022;28;20042;-84
2023/03/07 11:39:38;;;;;;;6.93;1.08;;;5.40;99.90;;;;;;5006199;28;20055;-84
2023/03/07 11:42:16;;;;;;;9.18;0.93;;;5.40;99.90;;;;;;5007029;28;20069;-84
2023/03/07 11:44:52;;;;;;;7.28;1.10;;;5.40;99.90;;;;;;4997005;28;20034;-84
2023/03/07 11:47:32;;;;;;;6.20;0.95;;;5.40;99.90;;;;;;5000414;28;20057;-84
2023/03/07 11:50:22;;;;;;;9.10;1.48;;;5.50;99.90;;;;;;5018561;28;20045;-84
2023/03/07 11:53:24;;;;;;;5.68;0.50;;;5.50;99.90;;;;;;4997949;28;20080;-84
2023/03/07 11:56:08;;;;;;;6.55;0.93;;;5.50;99.90;;;;;;5008208;28;20049;-84
2023/03/07 11:58:55;;;;;;;9.98;0.85;;;5.60;99.90;;;;;;5014458;28;20117;-84
2023/03/07 12:01:39;;;;;;;6.13;1.00;;;5.60;99.90;;;;;;4998252;28;20171;-84
2023/03/07 12:04:37;;;;;;;6.38;0.88;;;5.60;99.90;;;;;;5013679;28;20041;-84
2023/03/07 12:07:18;;;;;;;5.65;0.75;;;5.50;99.90;;;;;;5017521;28;20070;-84
2023/03/07 12:10:04;;;;;;;3.13;0.60;;;5.40;99.90;;;;;;5006250;28;20058;-84
2023/03/07 12:12:42;;;;;;;5.00;0.82;;;5.20;99.90;;;;;;4997832;28;20108;-84
2023/03/07 12:15:32;;;;;;;7.95;0.70;;;5.10;99.90;;;;;;5012691;28;20045;-84
2023/03/07 12:18:27;;;;;;;6.90;1.00;;;5.10;99.90;;;;;;5011660;28;20095;-84
2023/03/07 12:21:07;;;;;;;8.52;0.75;;;5.10;99.90;;;;;;5015283;28;20420;-84
2023/03/07 12:23:42;;;;;;;2.55;0.85;;;5.10;99.90;;;;;;5019559;28;20249;-85
2023/03/07 12:26:35;;;;;;;5.72;1.33;;;5.00;99.90;;;;;;5002488;28;20041;-84
2023/03/07 12:29:21;;;;;;;5.85;0.70;;;5.10;99.90;;;;;;5001037;28;20725;-83
2023/03/07 12:31:52;;;;;;;3.97;0.80;;;5.00;99.90;;;;;;5013458;28;20114;-83
2023/03/07 12:34:22;;;;;;;4.28;0.60;;;5.00;99.90;;;;;;5000075;28;20054;-83
2023/03/07 12:37:03;;;;;;;7.40;1.25;;;5.00;99.90;;;;;;5017494;28;20057;-83
2023/03/07 12:39:48;;;;;;;7.97;0.80;;;5.10;99.90;;;;;;5017193;28;20511;-83
2023/03/07 12:42:32;;;;;;;;;;;5.20;99.90;;;;;;5001564;28;20113;-84
2023/03/07 12:45:11;;;;;;;3.58;0.50;;;5.30;99.90;;;;;;5022409;28;19968;-84
2023/03/07 12:47:52;;;;;;;7.97;0.80;;;5.40;99.90;;;;;;5012583;28;20108;-83
2023/03/07 12:50:47;;;;;;;6.00;0.50;;;5.40;99.90;;;;;;4994117;28;20138;-83
2023/03/07 12:53:29;;;;;;;7.97;1.08;;;5.40;99.90;;;;;;4993561;28;20511;-84
2023/03/07 12:56:01;;;;;;;5.50;0.70;;;5.40;99.90;;;;;;5022400;28;20499;-84
2023/03/07 12:58:43;;;;;;;9.15;1.13;;;5.30;99.90;;;;;;4994502;28;20042;-84
2023/03/07 13:01:16;;;;;;;6.22;0.68;;;5.20;99.90;;;;;;5011754;28;20026;-84
2023/03/07 13:04:12;;;;;;;5.03;0.75;;;5.20;99.90;;;;;;5014862;28;20168;-84
2023/03/07 13:06:41;;;;;;;5.13;0.68;;;5.20;99.90;;;;;;4994142;28;20049;-84
2023/03/07 13:09:13;;;;;;;4.68;0.73;;;5.30;99.90;;;;;;4991111;28;20046;-84
2023/03/07 13:12:23;;;;;;;6.15;1.02;;;5.30;99.90;;;;;;4993957;28;20042;-86
2023/03/07 13:15:00;;;;;;;6.20;0.80;;;5.40;99.90;;;;;;4982146;28;20417;-86